sensor_id;sensor_type;location;lat;lon;timestamp;P1;durP1;ratioP1;P2;durP2;ratioP2
65170;SDS011;51757;52.208;5.162;2022-07-18T00:02:03;0.00;;;0.00;;
65170;SDS011;51757;52.208;5.162;2022-07-18T00:04:29;0.00;;;0.00;;
65170;SDS011;51757;52.208;5.162;2022-07-18T00:06:54;0.00;;;0.00;;
65170;SDS011;51757;52.208;5.162;2022-07-18T00:09:20;0.00;;;0.00;;
65170;SDS011;51757;52.208;5.162;2022-07-18T00:11:47;0.00;;;0.00;;
65170;SDS011;51757;52.208;5.162;2022-07-18T00:14:13;0.00;;;0.00;;
65170;SDS011;51757;52.208;5.162;2022-07-18T00:16:41;0.00;;;0.00;;
65170;SDS011;51757;52.208;5.162;2022-07-18T00:19:07;0.00;;;0.00;;
65170;SDS011;51757;52.208;5.162;2022-07-18T00:21:33;0.00;;;0.00;;
65170;SDS011;51757;52.208;5.162;2022-07-18T00:24:01;0.00;;;0.00;;
65170;SDS011;51757;52.208;5.162;2022-07-18T00:26:27;0.00;;;0.00;;
65170;SDS011;51757;52.208;5.162;2022-07-18T00:28:53;0.00;;;0.00;;
65170;SDS011;51757;52.208;5.162;2022-07-18T00:31:19;0.00;;;0.00;;
65170;SDS011;51757;52.208;5.162;2022-07-18T00:33:44;0.00;;;0.00;;
65170;SDS011;51757;52.208;5.162;2022-07-18T00:36:10;0.00;;;0.00;;
65170;SDS011;51757;52.208;5.162;2022-07-18T00:38:36;0.00;;;0.00;;
65170;SDS011;51757;52.208;5.162;2022-07-18T00:41:01;0.00;;;0.00;;
65170;SDS011;51757;52.208;5.162;2022-07-18T00:43:27;0.00;;;0.00;;
65170;SDS011;51757;52.208;5.162;2022-07-18T00:45:52;0.00;;;0.00;;
65170;SDS011;51757;52.208;5.162;2022-07-18T00:48:18;0.00;;;0.00;;
65170;SDS011;51757;52.208;5.162;2022-07-18T00:50:44;0.00;;;0.00;;
65170;SDS011;51757;52.208;5.162;2022-07-18T00:53:10;0.00;;;0.00;;
65170;SDS011;51757;52.208;5.162;2022-07-18T00:55:40;0.00;;;0.00;;
65170;SDS011;51757;52.208;5.162;2022-07-18T00:58:07;0.00;;;0.00;;
65170;SDS011;51757;52.208;5.162;2022-07-18T01:00:34;0.00;;;0.00;;
65170;SDS011;51757;52.208;5.162;2022-07-18T01:03:18;0.00;;;0.00;;
65170;SDS011;51757;52.208;5.162;2022-07-18T01:05:44;0.00;;;0.00;;
65170;SDS011;51757;52.208;5.162;2022-07-18T01:08:12;0.00;;;0.00;;
65170;SDS011;51757;52.208;5.162;2022-07-18T01:10:38;0.00;;;0.00;;
65170;SDS011;51757;52.208;5.162;2022-07-18T01:13:03;0.00;;;0.00;;
65170;SDS011;51757;52.208;5.162;2022-07-18T01:15:29;0.00;;;0.00;;
65170;SDS011;51757;52.208;5.162;2022-07-18T01:17:54;0.00;;;0.00;;
65170;SDS011;51757;52.208;5.162;2022-07-18T01:20:20;0.00;;;0.00;;
65170;SDS011;51757;52.208;5.162;2022-07-18T01:22:45;0.00;;;0.00;;
65170;SDS011;51757;52.208;5.162;2022-07-18T01:25:11;0.00;;;0.00;;
65170;SDS011;51757;52.208;5.162;2022-07-18T01:27:37;0.00;;;0.00;;
65170;SDS011;51757;52.208;5.162;2022-07-18T01:30:06;0.00;;;0.00;;
65170;SDS011;51757;52.208;5.162;2022-07-18T01:32:32;0.00;;;0.00;;
65170;SDS011;51757;52.208;5.162;2022-07-18T01:34:58;0.17;;;0.00;;
65170;SDS011;51757;52.208;5.162;2022-07-18T01:37:23;0.00;;;0.00;;
65170;SDS011;51757;52.208;5.162;2022-07-18T01:39:48;0.00;;;0.00;;
65170;SDS011;51757;52.208;5.162;2022-07-18T01:42:14;0.00;;;0.00;;
65170;SDS011;51757;52.208;5.162;2022-07-18T01:44:40;0.00;;;0.00;;
65170;SDS011;51757;52.208;5.162;2022-07-18T01:47:08;0.00;;;0.00;;
65170;SDS011;51757;52.208;5.162;2022-07-18T01:49:36;0.00;;;0.00;;
65170;SDS011;51757;52.208;5.162;2022-07-18T01:52:03;0.00;;;0.00;;
65170;SDS011;51757;52.208;5.162;2022-07-18T01:54:30;0.00;;;0.00;;
65170;SDS011;51757;52.208;5.162;2022-07-18T01:56:57;0.10;;;0.00;;
65170;SDS011;51757;52.208;5.162;2022-07-18T01:59:23;0.00;;;0.00;;
65170;SDS011;51757;52.208;5.162;2022-07-18T02:01:49;0.00;;;0.00;;
65170;SDS011;51757;52.208;5.162;2022-07-18T02:04:14;0.00;;;0.00;;
65170;SDS011;51757;52.208;5.162;2022-07-18T02:06:40;0.00;;;0.00;;
65170;SDS011;51757;52.208;5.162;2022-07-18T02:09:06;0.00;;;0.00;;
65170;SDS011;51757;52.208;5.162;2022-07-18T02:11:33;0.00;;;0.00;;
65170;SDS011;51757;52.208;5.162;2022-07-18T02:13:58;0.00;;;0.00;;
65170;SDS011;51757;52.208;5.162;2022-07-18T02:16:24;0.00;;;0.00;;
65170;SDS011;51757;52.208;5.162;2022-07-18T02:18:50;0.00;;;0.00;;
65170;SDS011;51757;52.208;5.162;2022-07-18T02:21:18;0.00;;;0.00;;
65170;SDS011;51757;52.208;5.162;2022-07-18T02:23:43;0.00;;;0.00;;
65170;SDS011;51757;52.208;5.162;2022-07-18T02:26:09;0.00;;;0.00;;
65170;SDS011;51757;52.208;5.162;2022-07-18T02:28:35;0.00;;;0.00;;
65170;SDS011;51757;52.208;5.162;2022-07-18T02:31:04;0.00;;;0.00;;
65170;SDS011;51757;52.208;5.162;2022-07-18T02:33:35;0.00;;;0.00;;
65170;SDS011;51757;52.208;5.162;2022-07-18T02:36:06;0.00;;;0.00;;
65170;SDS011;51757;52.208;5.162;2022-07-18T02:38:40;0.00;;;0.00;;
65170;SDS011;51757;52.208;5.162;2022-07-18T02:41:06;0.00;;;0.00;;
65170;SDS011;51757;52.208;5.162;2022-07-18T02:43:34;0.00;;;0.00;;
65170;SDS011;51757;52.208;5.162;2022-07-18T02:46:05;0.00;;;0.00;;
65170;SDS011;51757;52.208;5.162;2022-07-18T02:48:37;0.00;;;0.00;;
65170;SDS011;51757;52.208;5.162;2022-07-18T02:51:03;0.00;;;0.00;;
65170;SDS011;51757;52.208;5.162;2022-07-18T02:53:30;0.00;;;0.00;;
65170;SDS011;51757;52.208;5.162;2022-07-18T02:55:59;0.00;;;0.00;;
65170;SDS011;51757;52.208;5.162;2022-07-18T02:58:27;0.00;;;0.00;;
65170;SDS011;51757;52.208;5.162;2022-07-18T03:00:57;0.00;;;0.00;;
65170;SDS011;51757;52.208;5.162;2022-07-18T03:03:23;0.00;;;0.00;;
65170;SDS011;51757;52.208;5.162;2022-07-18T03:05:51;0.00;;;0.00;;
65170;SDS011;51757;52.208;5.162;2022-07-18T03:08:20;0.00;;;0.00;;
65170;SDS011;51757;52.208;5.162;2022-07-18T03:10:48;0.00;;;0.00;;
65170;SDS011;51757;52.208;5.162;2022-07-18T03:13:26;0.00;;;0.00;;
65170;SDS011;51757;52.208;5.162;2022-07-18T03:15:54;0.00;;;0.00;;
65170;SDS011;51757;52.208;5.162;2022-07-18T03:18:22;0.00;;;0.00;;
65170;SDS011;51757;52.208;5.162;2022-07-18T03:20:51;0.00;;;0.00;;
65170;SDS011;51757;52.208;5.162;2022-07-18T03:23:19;0.00;;;0.00;;
65170;SDS011;51757;52.208;5.162;2022-07-18T03:25:44;0.00;;;0.00;;
65170;SDS011;51757;52.208;5.162;2022-07-18T03:28:13;0.00;;;0.00;;
65170;SDS011;51757;52.208;5.162;2022-07-18T03:30:38;0.00;;;0.00;;
65170;SDS011;51757;52.208;5.162;2022-07-18T03:33:06;0.00;;;0.00;;
65170;SDS011;51757;52.208;5.162;2022-07-18T03:35:34;0.00;;;0.00;;
65170;SDS011;51757;52.208;5.162;2022-07-18T03:38:02;0.00;;;0.00;;
65170;SDS011;51757;52.208;5.162;2022-07-18T03:40:33;0.00;;;0.00;;
65170;SDS011;51757;52.208;5.162;2022-07-18T03:42:59;0.00;;;0.00;;
65170;SDS011;51757;52.208;5.162;2022-07-18T03:45:28;0.00;;;0.00;;
65170;SDS011;51757;52.208;5.162;2022-07-18T03:47:55;0.00;;;0.00;;
65170;SDS011;51757;52.208;5.162;2022-07-18T03:50:24;0.00;;;0.00;;
65170;SDS011;51757;52.208;5.162;2022-07-18T03:52:58;0.00;;;0.00;;
65170;SDS011;51757;52.208;5.162;2022-07-18T03:55:30;0.00;;;0.00;;
65170;SDS011;51757;52.208;5.162;2022-07-18T03:57:58;0.00;;;0.00;;
65170;SDS011;51757;52.208;5.162;2022-07-18T04:00:24;0.00;;;0.00;;
65170;SDS011;51757;52.208;5.162;2022-07-18T04:02:50;0.00;;;0.00;;
65170;SDS011;51757;52.208;5.162;2022-07-18T04:05:17;0.00;;;0.00;;
65170;SDS011;51757;52.208;5.162;2022-07-18T04:07:43;0.00;;;0.00;;
65170;SDS011;51757;52.208;5.162;2022-07-18T04:10:17;0.00;;;0.00;;
65170;SDS011;51757;52.208;5.162;2022-07-18T04:12:46;0.00;;;0.00;;
65170;SDS011;51757;52.208;5.162;2022-07-18T04:15:12;0.00;;;0.00;;
65170;SDS011;51757;52.208;5.162;2022-07-18T04:17:40;0.00;;;0.00;;
65170;SDS011;51757;52.208;5.162;2022-07-18T04:20:09;0.00;;;0.00;;
65170;SDS011;51757;52.208;5.162;2022-07-18T04:25:28;0.00;;;0.00;;
65170;SDS011;51757;52.208;5.162;2022-07-18T04:28:08;0.00;;;0.00;;
65170;SDS011;51757;52.208;5.162;2022-07-18T04:30:35;0.00;;;0.00;;
65170;SDS011;51757;52.208;5.162;2022-07-18T04:33:02;0.00;;;0.00;;
65170;SDS011;51757;52.208;5.162;2022-07-18T04:35:32;0.00;;;0.00;;
65170;SDS011;51757;52.208;5.162;2022-07-18T04:38:00;0.00;;;0.00;;
65170;SDS011;51757;52.208;5.162;2022-07-18T04:40:36;0.00;;;0.00;;
65170;SDS011;51757;52.208;5.162;2022-07-18T04:43:05;0.00;;;0.00;;
65170;SDS011;51757;52.208;5.162;2022-07-18T04:45:34;0.00;;;0.00;;
65170;SDS011;51757;52.208;5.162;2022-07-18T04:48:03;0.00;;;0.00;;
65170;SDS011;51757;52.208;5.162;2022-07-18T04:50:30;0.00;;;0.00;;
65170;SDS011;51757;52.208;5.162;2022-07-18T04:52:56;0.00;;;0.00;;
65170;SDS011;51757;52.208;5.162;2022-07-18T04:55:29;0.00;;;0.00;;
65170;SDS011;51757;52.208;5.162;2022-07-18T04:58:00;0.00;;;0.00;;
65170;SDS011;51757;52.208;5.162;2022-07-18T05:00:29;0.00;;;0.00;;
65170;SDS011;51757;52.208;5.162;2022-07-18T05:02:55;0.00;;;0.00;;
65170;SDS011;51757;52.208;5.162;2022-07-18T05:05:25;0.00;;;0.00;;
65170;SDS011;51757;52.208;5.162;2022-07-18T05:07:52;0.00;;;0.00;;
65170;SDS011;51757;52.208;5.162;2022-07-18T05:10:19;0.00;;;0.00;;
65170;SDS011;51757;52.208;5.162;2022-07-18T05:12:46;0.00;;;0.00;;
65170;SDS011;51757;52.208;5.162;2022-07-18T05:15:15;0.00;;;0.00;;
65170;SDS011;51757;52.208;5.162;2022-07-18T05:17:47;0.00;;;0.00;;
65170;SDS011;51757;52.208;5.162;2022-07-18T05:20:15;0.00;;;0.00;;
65170;SDS011;51757;52.208;5.162;2022-07-18T05:22:45;0.17;;;0.00;;
65170;SDS011;51757;52.208;5.162;2022-07-18T05:25:19;0.00;;;0.00;;
65170;SDS011;51757;52.208;5.162;2022-07-18T05:27:47;0.00;;;0.00;;
65170;SDS011;51757;52.208;5.162;2022-07-18T05:30:14;0.00;;;0.00;;
65170;SDS011;51757;52.208;5.162;2022-07-18T05:32:43;0.00;;;0.00;;
65170;SDS011;51757;52.208;5.162;2022-07-18T05:35:20;0.00;;;0.00;;
65170;SDS011;51757;52.208;5.162;2022-07-18T05:37:49;0.00;;;0.00;;
65170;SDS011;51757;52.208;5.162;2022-07-18T05:40:15;0.00;;;0.00;;
65170;SDS011;51757;52.208;5.162;2022-07-18T05:42:41;0.00;;;0.00;;
65170;SDS011;51757;52.208;5.162;2022-07-18T05:45:07;0.00;;;0.00;;
65170;SDS011;51757;52.208;5.162;2022-07-18T05:47:36;0.00;;;0.00;;
65170;SDS011;51757;52.208;5.162;2022-07-18T05:50:04;0.00;;;0.00;;
65170;SDS011;51757;52.208;5.162;2022-07-18T05:52:43;0.00;;;0.00;;
65170;SDS011;51757;52.208;5.162;2022-07-18T05:58:03;0.22;;;0.00;;
65170;SDS011;51757;52.208;5.162;2022-07-18T06:00:31;0.00;;;0.00;;
65170;SDS011;51757;52.208;5.162;2022-07-18T06:02:56;0.00;;;0.00;;
65170;SDS011;51757;52.208;5.162;2022-07-18T06:05:22;0.00;;;0.00;;
65170;SDS011;51757;52.208;5.162;2022-07-18T06:07:48;0.10;;;0.00;;
65170;SDS011;51757;52.208;5.162;2022-07-18T06:10:13;0.00;;;0.00;;
65170;SDS011;51757;52.208;5.162;2022-07-18T06:12:39;0.20;;;0.00;;
65170;SDS011;51757;52.208;5.162;2022-07-18T06:15:05;0.10;;;0.00;;
65170;SDS011;51757;52.208;5.162;2022-07-18T06:17:32;0.00;;;0.00;;
65170;SDS011;51757;52.208;5.162;2022-07-18T06:22:30;0.00;;;0.00;;
65170;SDS011;51757;52.208;5.162;2022-07-18T06:24:56;0.00;;;0.00;;
65170;SDS011;51757;52.208;5.162;2022-07-18T06:27:23;0.00;;;0.00;;
65170;SDS011;51757;52.208;5.162;2022-07-18T06:29:49;0.00;;;0.00;;
65170;SDS011;51757;52.208;5.162;2022-07-18T06:32:14;0.00;;;0.00;;
65170;SDS011;51757;52.208;5.162;2022-07-18T06:34:40;0.00;;;0.00;;
65170;SDS011;51757;52.208;5.162;2022-07-18T06:37:05;0.00;;;0.00;;
65170;SDS011;51757;52.208;5.162;2022-07-18T06:39:33;0.00;;;0.00;;
65170;SDS011;51757;52.208;5.162;2022-07-18T06:41:59;0.00;;;0.00;;
65170;SDS011;51757;52.208;5.162;2022-07-18T06:44:27;0.00;;;0.00;;
65170;SDS011;51757;52.208;5.162;2022-07-18T06:46:55;0.00;;;0.00;;
65170;SDS011;51757;52.208;5.162;2022-07-18T06:49:31;0.20;;;0.00;;
65170;SDS011;51757;52.208;5.162;2022-07-18T06:52:08;0.00;;;0.00;;
65170;SDS011;51757;52.208;5.162;2022-07-18T06:54:39;0.00;;;0.00;;
65170;SDS011;51757;52.208;5.162;2022-07-18T06:57:11;0.00;;;0.00;;
65170;SDS011;51757;52.208;5.162;2022-07-18T06:59:44;0.00;;;0.00;;
65170;SDS011;51757;52.208;5.162;2022-07-18T07:02:17;0.00;;;0.00;;
65170;SDS011;51757;52.208;5.162;2022-07-18T07:04:50;0.00;;;0.00;;
65170;SDS011;51757;52.208;5.162;2022-07-18T07:07:36;0.10;;;0.00;;
65170;SDS011;51757;52.208;5.162;2022-07-18T07:10:02;0.00;;;0.00;;
65170;SDS011;51757;52.208;5.162;2022-07-18T07:12:30;0.00;;;0.00;;
65170;SDS011;51757;52.208;5.162;2022-07-18T07:15:03;0.10;;;0.00;;
65170;SDS011;51757;52.208;5.162;2022-07-18T07:17:36;0.00;;;0.00;;
65170;SDS011;51757;52.208;5.162;2022-07-18T07:20:05;0.00;;;0.00;;
65170;SDS011;51757;52.208;5.162;2022-07-18T07:22:40;0.00;;;0.00;;
65170;SDS011;51757;52.208;5.162;2022-07-18T07:25:09;0.00;;;0.00;;
65170;SDS011;51757;52.208;5.162;2022-07-18T07:27:38;0.00;;;0.00;;
65170;SDS011;51757;52.208;5.162;2022-07-18T07:30:08;0.00;;;0.00;;
65170;SDS011;51757;52.208;5.162;2022-07-18T07:32:49;0.00;;;0.00;;
65170;SDS011;51757;52.208;5.162;2022-07-18T07:35:24;0.00;;;0.00;;
65170;SDS011;51757;52.208;5.162;2022-07-18T07:37:54;0.00;;;0.00;;
65170;SDS011;51757;52.208;5.162;2022-07-18T07:40:21;0.00;;;0.00;;
65170;SDS011;51757;52.208;5.162;2022-07-18T07:42:49;0.00;;;0.00;;
65170;SDS011;51757;52.208;5.162;2022-07-18T07:45:19;0.00;;;0.00;;
65170;SDS011;51757;52.208;5.162;2022-07-18T07:47:50;0.00;;;0.00;;
65170;SDS011;51757;52.208;5.162;2022-07-18T07:50:21;0.00;;;0.00;;
65170;SDS011;51757;52.208;5.162;2022-07-18T07:52:58;0.00;;;0.00;;
65170;SDS011;51757;52.208;5.162;2022-07-18T07:55:24;0.00;;;0.00;;
65170;SDS011;51757;52.208;5.162;2022-07-18T07:57:50;0.00;;;0.00;;
65170;SDS011;51757;52.208;5.162;2022-07-18T08:00:34;0.00;;;0.00;;
65170;SDS011;51757;52.208;5.162;2022-07-18T08:03:01;0.00;;;0.00;;
65170;SDS011;51757;52.208;5.162;2022-07-18T08:05:45;0.17;;;0.00;;
65170;SDS011;51757;52.208;5.162;2022-07-18T08:08:12;0.00;;;0.00;;
65170;SDS011;51757;52.208;5.162;2022-07-18T08:10:39;0.00;;;0.00;;
65170;SDS011;51757;52.208;5.162;2022-07-18T08:13:07;0.00;;;0.00;;
65170;SDS011;51757;52.208;5.162;2022-07-18T08:15:37;0.00;;;0.00;;
65170;SDS011;51757;52.208;5.162;2022-07-18T08:18:06;0.00;;;0.00;;
65170;SDS011;51757;52.208;5.162;2022-07-18T08:20:31;0.20;;;0.00;;
65170;SDS011;51757;52.208;5.162;2022-07-18T08:23:07;0.00;;;0.00;;
65170;SDS011;51757;52.208;5.162;2022-07-18T08:25:39;0.00;;;0.00;;
65170;SDS011;51757;52.208;5.162;2022-07-18T08:28:05;0.00;;;0.00;;
65170;SDS011;51757;52.208;5.162;2022-07-18T08:30:32;0.00;;;0.00;;
65170;SDS011;51757;52.208;5.162;2022-07-18T08:32:58;0.00;;;0.00;;
65170;SDS011;51757;52.208;5.162;2022-07-18T08:35:25;0.00;;;0.00;;
65170;SDS011;51757;52.208;5.162;2022-07-18T08:37:54;0.00;;;0.00;;
65170;SDS011;51757;52.208;5.162;2022-07-18T08:40:23;0.00;;;0.00;;
65170;SDS011;51757;52.208;5.162;2022-07-18T08:43:06;0.00;;;0.00;;
65170;SDS011;51757;52.208;5.162;2022-07-18T08:45:43;0.05;;;0.00;;
65170;SDS011;51757;52.208;5.162;2022-07-18T08:48:30;0.00;;;0.00;;
65170;SDS011;51757;52.208;5.162;2022-07-18T08:51:01;0.00;;;0.00;;
65170;SDS011;51757;52.208;5.162;2022-07-18T08:53:29;0.00;;;0.00;;
65170;SDS011;51757;52.208;5.162;2022-07-18T08:56:03;0.00;;;0.00;;
65170;SDS011;51757;52.208;5.162;2022-07-18T08:58:32;0.00;;;0.00;;
65170;SDS011;51757;52.208;5.162;2022-07-18T09:01:01;0.00;;;0.00;;
65170;SDS011;51757;52.208;5.162;2022-07-18T09:03:28;0.00;;;0.00;;
65170;SDS011;51757;52.208;5.162;2022-07-18T09:06:44;0.00;;;0.00;;
65170;SDS011;51757;52.208;5.162;2022-07-18T09:09:30;0.00;;;0.00;;
65170;SDS011;51757;52.208;5.162;2022-07-18T09:12:14;0.00;;;0.00;;
65170;SDS011;51757;52.208;5.162;2022-07-18T09:14:41;0.00;;;0.00;;
65170;SDS011;51757;52.208;5.162;2022-07-18T09:17:14;0.00;;;0.00;;
65170;SDS011;51757;52.208;5.162;2022-07-18T09:22:31;0.00;;;0.00;;
65170;SDS011;51757;52.208;5.162;2022-07-18T09:25:23;0.00;;;0.00;;
65170;SDS011;51757;52.208;5.162;2022-07-18T09:27:51;0.00;;;0.00;;
65170;SDS011;51757;52.208;5.162;2022-07-18T09:30:19;0.00;;;0.00;;
65170;SDS011;51757;52.208;5.162;2022-07-18T09:33:10;0.00;;;0.00;;
65170;SDS011;51757;52.208;5.162;2022-07-18T09:35:50;0.00;;;0.00;;
65170;SDS011;51757;52.208;5.162;2022-07-18T09:38:30;0.00;;;0.00;;
65170;SDS011;51757;52.208;5.162;2022-07-18T09:41:12;0.00;;;0.00;;
65170;SDS011;51757;52.208;5.162;2022-07-18T09:43:54;0.00;;;0.00;;
65170;SDS011;51757;52.208;5.162;2022-07-18T09:46:22;0.00;;;0.00;;
65170;SDS011;51757;52.208;5.162;2022-07-18T09:48:50;0.00;;;0.00;;
65170;SDS011;51757;52.208;5.162;2022-07-18T09:51:35;0.00;;;0.00;;
65170;SDS011;51757;52.208;5.162;2022-07-18T09:54:10;0.00;;;0.00;;
65170;SDS011;51757;52.208;5.162;2022-07-18T09:56:35;0.00;;;0.00;;
65170;SDS011;51757;52.208;5.162;2022-07-18T09:59:17;0.00;;;0.00;;
65170;SDS011;51757;52.208;5.162;2022-07-18T10:01:46;0.00;;;0.00;;
65170;SDS011;51757;52.208;5.162;2022-07-18T10:04:23;0.00;;;0.00;;
65170;SDS011;51757;52.208;5.162;2022-07-18T10:06:58;0.00;;;0.00;;
65170;SDS011;51757;52.208;5.162;2022-07-18T10:09:30;0.00;;;0.00;;
65170;SDS011;51757;52.208;5.162;2022-07-18T10:12:15;0.00;;;0.00;;
65170;SDS011;51757;52.208;5.162;2022-07-18T10:15:05;0.00;;;0.00;;
65170;SDS011;51757;52.208;5.162;2022-07-18T10:17:52;0.00;;;0.00;;
65170;SDS011;51757;52.208;5.162;2022-07-18T10:20:25;0.00;;;0.00;;
65170;SDS011;51757;52.208;5.162;2022-07-18T10:29:16;0.00;;;0.00;;
65170;SDS011;51757;52.208;5.162;2022-07-18T10:35:26;0.00;;;0.00;;
65170;SDS011;51757;52.208;5.162;2022-07-18T10:38:25;0.00;;;0.00;;
65170;SDS011;51757;52.208;5.162;2022-07-18T10:41:08;0.00;;;0.00;;
65170;SDS011;51757;52.208;5.162;2022-07-18T10:43:38;0.00;;;0.00;;
65170;SDS011;51757;52.208;5.162;2022-07-18T10:46:08;0.00;;;0.00;;
65170;SDS011;51757;52.208;5.162;2022-07-18T10:51:06;0.00;;;0.00;;
65170;SDS011;51757;52.208;5.162;2022-07-18T10:53:55;0.00;;;0.00;;
65170;SDS011;51757;52.208;5.162;2022-07-18T10:59:22;0.00;;;0.00;;
65170;SDS011;51757;52.208;5.162;2022-07-18T11:01:54;0.00;;;0.00;;
65170;SDS011;51757;52.208;5.162;2022-07-18T11:04:37;0.00;;;0.00;;
65170;SDS011;51757;52.208;5.162;2022-07-18T11:07:10;0.00;;;0.00;;
65170;SDS011;51757;52.208;5.162;2022-07-18T11:09:45;0.00;;;0.00;;
65170;SDS011;51757;52.208;5.162;2022-07-18T11:12:22;0.00;;;0.00;;
65170;SDS011;51757;52.208;5.162;2022-07-18T11:21:21;0.00;;;0.00;;
65170;SDS011;51757;52.208;5.162;2022-07-18T11:23:59;0.00;;;0.00;;
65170;SDS011;51757;52.208;5.162;2022-07-18T11:29:42;0.00;;;0.00;;
65170;SDS011;51757;52.208;5.162;2022-07-18T11:32:30;0.00;;;0.00;;
65170;SDS011;51757;52.208;5.162;2022-07-18T11:35:08;0.00;;;0.00;;
65170;SDS011;51757;52.208;5.162;2022-07-18T11:37:47;0.00;;;0.00;;
65170;SDS011;51757;52.208;5.162;2022-07-18T11:40:23;0.00;;;0.00;;
65170;SDS011;51757;52.208;5.162;2022-07-18T11:43:09;0.10;;;0.03;;
65170;SDS011;51757;52.208;5.162;2022-07-18T11:45:54;0.10;;;0.00;;
65170;SDS011;51757;52.208;5.162;2022-07-18T11:51:45;0.00;;;0.00;;
65170;SDS011;51757;52.208;5.162;2022-07-18T11:54:22;0.00;;;0.00;;
65170;SDS011;51757;52.208;5.162;2022-07-18T11:56:53;0.00;;;0.00;;
65170;SDS011;51757;52.208;5.162;2022-07-18T11:59:33;0.00;;;0.00;;
65170;SDS011;51757;52.208;5.162;2022-07-18T12:02:11;0.00;;;0.00;;
65170;SDS011;51757;52.208;5.162;2022-07-18T12:04:46;0.00;;;0.00;;
65170;SDS011;51757;52.208;5.162;2022-07-18T12:07:25;0.00;;;0.00;;
65170;SDS011;51757;52.208;5.162;2022-07-18T12:09:53;0.00;;;0.00;;
65170;SDS011;51757;52.208;5.162;2022-07-18T12:12:24;0.00;;;0.00;;
65170;SDS011;51757;52.208;5.162;2022-07-18T12:15:08;0.00;;;0.00;;
65170;SDS011;51757;52.208;5.162;2022-07-18T12:17:53;0.00;;;0.00;;
65170;SDS011;51757;52.208;5.162;2022-07-18T12:20:23;0.00;;;0.00;;
65170;SDS011;51757;52.208;5.162;2022-07-18T12:23:10;0.00;;;0.00;;
65170;SDS011;51757;52.208;5.162;2022-07-18T12:25:38;0.00;;;0.00;;
65170;SDS011;51757;52.208;5.162;2022-07-18T12:28:13;0.00;;;0.00;;
65170;SDS011;51757;52.208;5.162;2022-07-18T12:30:48;0.00;;;0.00;;
65170;SDS011;51757;52.208;5.162;2022-07-18T12:33:24;0.00;;;0.00;;
65170;SDS011;51757;52.208;5.162;2022-07-18T12:35:58;0.00;;;0.00;;
65170;SDS011;51757;52.208;5.162;2022-07-18T12:38:27;0.00;;;0.00;;
65170;SDS011;51757;52.208;5.162;2022-07-18T12:41:10;0.00;;;0.00;;
65170;SDS011;51757;52.208;5.162;2022-07-18T12:43:38;0.00;;;0.00;;
65170;SDS011;51757;52.208;5.162;2022-07-18T12:46:10;0.00;;;0.00;;
65170;SDS011;51757;52.208;5.162;2022-07-18T12:48:41;0.00;;;0.00;;
65170;SDS011;51757;52.208;5.162;2022-07-18T12:51:12;0.00;;;0.00;;
65170;SDS011;51757;52.208;5.162;2022-07-18T12:53:41;0.00;;;0.00;;
65170;SDS011;51757;52.208;5.162;2022-07-18T12:56:23;0.00;;;0.00;;
65170;SDS011;51757;52.208;5.162;2022-07-18T13:01:47;0.00;;;0.00;;
65170;SDS011;51757;52.208;5.162;2022-07-18T13:04:44;0.10;;;0.10;;
65170;SDS011;51757;52.208;5.162;2022-07-18T13:07:48;0.00;;;0.00;;
65170;SDS011;51757;52.208;5.162;2022-07-18T13:10:56;0.00;;;0.00;;
65170;SDS011;51757;52.208;5.162;2022-07-18T13:13:23;0.00;;;0.00;;
65170;SDS011;51757;52.208;5.162;2022-07-18T13:15:57;0.10;;;0.10;;
65170;SDS011;51757;52.208;5.162;2022-07-18T13:18:27;0.03;;;0.03;;
65170;SDS011;51757;52.208;5.162;2022-07-18T13:20:56;0.10;;;0.10;;
65170;SDS011;51757;52.208;5.162;2022-07-18T13:23:22;0.00;;;0.00;;
65170;SDS011;51757;52.208;5.162;2022-07-18T13:25:57;0.15;;;0.05;;
65170;SDS011;51757;52.208;5.162;2022-07-18T13:28:33;0.00;;;0.00;;
65170;SDS011;51757;52.208;5.162;2022-07-18T13:30:59;0.10;;;0.10;;
65170;SDS011;51757;52.208;5.162;2022-07-18T13:33:36;0.00;;;0.00;;
65170;SDS011;51757;52.208;5.162;2022-07-18T13:36:25;0.10;;;0.10;;
65170;SDS011;51757;52.208;5.162;2022-07-18T13:38:54;0.00;;;0.00;;
65170;SDS011;51757;52.208;5.162;2022-07-18T13:41:32;0.00;;;0.00;;
65170;SDS011;51757;52.208;5.162;2022-07-18T13:44:00;0.10;;;0.10;;
65170;SDS011;51757;52.208;5.162;2022-07-18T13:46:33;0.10;;;0.10;;
65170;SDS011;51757;52.208;5.162;2022-07-18T13:49:09;0.00;;;0.00;;
65170;SDS011;51757;52.208;5.162;2022-07-18T13:51:41;0.10;;;0.10;;
65170;SDS011;51757;52.208;5.162;2022-07-18T13:54:42;0.00;;;0.00;;
65170;SDS011;51757;52.208;5.162;2022-07-18T13:57:13;0.00;;;0.00;;
65170;SDS011;51757;52.208;5.162;2022-07-18T13:59:38;0.10;;;0.10;;
65170;SDS011;51757;52.208;5.162;2022-07-18T14:02:14;0.10;;;0.10;;
65170;SDS011;51757;52.208;5.162;2022-07-18T14:04:42;0.10;;;0.10;;
65170;SDS011;51757;52.208;5.162;2022-07-18T14:07:18;0.10;;;0.10;;
65170;SDS011;51757;52.208;5.162;2022-07-18T14:09:46;0.05;;;0.05;;
65170;SDS011;51757;52.208;5.162;2022-07-18T14:12:15;0.00;;;0.00;;
65170;SDS011;51757;52.208;5.162;2022-07-18T14:14:41;0.28;;;0.10;;
65170;SDS011;51757;52.208;5.162;2022-07-18T14:17:08;0.10;;;0.10;;
65170;SDS011;51757;52.208;5.162;2022-07-18T14:19:42;0.10;;;0.10;;
65170;SDS011;51757;52.208;5.162;2022-07-18T14:22:13;0.00;;;0.00;;
65170;SDS011;51757;52.208;5.162;2022-07-18T14:24:44;0.08;;;0.08;;
65170;SDS011;51757;52.208;5.162;2022-07-18T14:27:52;0.10;;;0.10;;
65170;SDS011;51757;52.208;5.162;2022-07-18T14:30:26;0.10;;;0.10;;
65170;SDS011;51757;52.208;5.162;2022-07-18T14:32:51;0.10;;;0.10;;
65170;SDS011;51757;52.208;5.162;2022-07-18T14:35:19;0.10;;;0.10;;
65170;SDS011;51757;52.208;5.162;2022-07-18T14:37:55;0.08;;;0.08;;
65170;SDS011;51757;52.208;5.162;2022-07-18T14:40:20;0.10;;;0.10;;
65170;SDS011;51757;52.208;5.162;2022-07-18T14:42:46;0.10;;;0.10;;
65170;SDS011;51757;52.208;5.162;2022-07-18T14:45:22;0.10;;;0.10;;
65170;SDS011;51757;52.208;5.162;2022-07-18T14:47:48;0.10;;;0.10;;
65170;SDS011;51757;52.208;5.162;2022-07-18T14:50:17;0.10;;;0.10;;
65170;SDS011;51757;52.208;5.162;2022-07-18T14:52:47;0.10;;;0.10;;
65170;SDS011;51757;52.208;5.162;2022-07-18T14:55:13;0.10;;;0.10;;
65170;SDS011;51757;52.208;5.162;2022-07-18T14:58:07;0.10;;;0.10;;
65170;SDS011;51757;52.208;5.162;2022-07-18T15:00:35;0.10;;;0.10;;
65170;SDS011;51757;52.208;5.162;2022-07-18T15:03:00;0.13;;;0.13;;
65170;SDS011;51757;52.208;5.162;2022-07-18T15:05:29;0.10;;;0.10;;
65170;SDS011;51757;52.208;5.162;2022-07-18T15:08:04;0.30;;;0.30;;
65170;SDS011;51757;52.208;5.162;2022-07-18T15:10:29;0.35;;;0.35;;
65170;SDS011;51757;52.208;5.162;2022-07-18T15:12:55;0.40;;;0.40;;
65170;SDS011;51757;52.208;5.162;2022-07-18T15:15:21;0.40;;;0.40;;
65170;SDS011;51757;52.208;5.162;2022-07-18T15:21:04;0.80;;;0.80;;
65170;SDS011;51757;52.208;5.162;2022-07-18T15:23:53;0.90;;;0.90;;
65170;SDS011;51757;52.208;5.162;2022-07-18T15:26:21;1.10;;;1.10;;
65170;SDS011;51757;52.208;5.162;2022-07-18T15:28:52;1.13;;;1.13;;
65170;SDS011;51757;52.208;5.162;2022-07-18T15:31:33;1.30;;;1.30;;
65170;SDS011;51757;52.208;5.162;2022-07-18T15:34:06;1.40;;;1.40;;
65170;SDS011;51757;52.208;5.162;2022-07-18T15:36:34;1.50;;;1.50;;
65170;SDS011;51757;52.208;5.162;2022-07-18T15:39:27;1.80;;;1.80;;
65170;SDS011;51757;52.208;5.162;2022-07-18T15:42:04;2.10;;;2.00;;
65170;SDS011;51757;52.208;5.162;2022-07-18T15:44:39;2.45;;;2.35;;
65170;SDS011;51757;52.208;5.162;2022-07-18T15:47:05;2.80;;;2.70;;
65170;SDS011;51757;52.208;5.162;2022-07-18T15:49:38;3.17;;;3.08;;
65170;SDS011;51757;52.208;5.162;2022-07-18T15:52:06;3.80;;;3.60;;
65170;SDS011;51757;52.208;5.162;2022-07-18T15:54:34;3.90;;;3.70;;
65170;SDS011;51757;52.208;5.162;2022-07-18T15:57:01;4.10;;;3.90;;
65170;SDS011;51757;52.208;5.162;2022-07-18T15:59:33;4.78;;;4.57;;